sensor_id;sensor_type;location;lat;lon;timestamp;temperature;humidity
52016;DHT22;38032;53.326;6.472;2024-01-10T00:01:40;-2.50;99.90
52016;DHT22;38032;53.326;6.472;2024-01-10T00:04:06;-2.50;99.90
52016;DHT22;38032;53.326;6.472;2024-01-10T00:06:31;-2.50;99.90
52016;DHT22;38032;53.326;6.472;2024-01-10T00:08:57;-2.50;99.90
52016;DHT22;38032;53.326;6.472;2024-01-10T00:11:23;-2.40;99.90
52016;DHT22;38032;53.326;6.472;2024-01-10T00:13:49;-2.40;99.90
52016;DHT22;38032;53.326;6.472;2024-01-10T00:16:15;-2.40;99.90
52016;DHT22;38032;53.326;6.472;2024-01-10T00:18:41;-2.40;99.90
52016;DHT22;38032;53.326;6.472;2024-01-10T00:21:07;-2.40;99.90
52016;DHT22;38032;53.326;6.472;2024-01-10T00:23:33;-2.40;99.90
52016;DHT22;38032;53.326;6.472;2024-01-10T00:25:59;-2.30;99.90
52016;DHT22;38032;53.326;6.472;2024-01-10T00:28:25;-2.30;99.90
52016;DHT22;38032;53.326;6.472;2024-01-10T00:30:51;-2.30;99.90
52016;DHT22;38032;53.326;6.472;2024-01-10T00:33:17;-2.30;99.90
52016;DHT22;38032;53.326;6.472;2024-01-10T00:35:43;-2.30;99.90
52016;DHT22;38032;53.326;6.472;2024-01-10T00:38:10;-2.30;99.90
52016;DHT22;38032;53.326;6.472;2024-01-10T00:40:36;-2.30;99.90
52016;DHT22;38032;53.326;6.472;2024-01-10T00:43:02;-2.20;99.90
52016;DHT22;38032;53.326;6.472;2024-01-10T00:45:29;-2.20;99.90
52016;DHT22;38032;53.326;6.472;2024-01-10T00:47:55;-2.30;99.90
52016;DHT22;38032;53.326;6.472;2024-01-10T00:50:21;-2.20;99.90
52016;DHT22;38032;53.326;6.472;2024-01-10T00:52:47;-2.20;99.90
52016;DHT22;38032;53.326;6.472;2024-01-10T00:55:13;-2.20;99.90
52016;DHT22;38032;53.326;6.472;2024-01-10T00:57:39;-2.20;99.90
52016;DHT22;38032;53.326;6.472;2024-01-10T01:00:07;-2.20;99.90
52016;DHT22;38032;53.326;6.472;2024-01-10T01:02:33;-2.20;99.90
52016;DHT22;38032;53.326;6.472;2024-01-10T01:04:58;-2.20;99.90
52016;DHT22;38032;53.326;6.472;2024-01-10T01:07:26;-2.20;99.90
52016;DHT22;38032;53.326;6.472;2024-01-10T01:09:52;-2.20;99.90
52016;DHT22;38032;53.326;6.472;2024-01-10T01:12:17;-2.20;99.90
52016;DHT22;38032;53.326;6.472;2024-01-10T01:14:43;-2.20;99.90
52016;DHT22;38032;53.326;6.472;2024-01-10T01:17:09;-2.20;99.90
52016;DHT22;38032;53.326;6.472;2024-01-10T01:19:35;-2.30;99.90
52016;DHT22;38032;53.326;6.472;2024-01-10T01:22:01;-2.20;99.90
52016;DHT22;38032;53.326;6.472;2024-01-10T01:24:27;-2.20;99.90
52016;DHT22;38032;53.326;6.472;2024-01-10T01:26:52;-2.20;99.90
52016;DHT22;38032;53.326;6.472;2024-01-10T01:29:19;-2.30;99.90
52016;DHT22;38032;53.326;6.472;2024-01-10T01:31:45;-2.40;99.90
52016;DHT22;38032;53.326;6.472;2024-01-10T01:34:11;-2.50;99.90
52016;DHT22;38032;53.326;6.472;2024-01-10T01:36:37;-2.50;99.90
52016;DHT22;38032;53.326;6.472;2024-01-10T01:39:03;-2.50;99.90
52016;DHT22;38032;53.326;6.472;2024-01-10T01:41:29;-2.50;99.90
52016;DHT22;38032;53.326;6.472;2024-01-10T01:43:55;-2.50;99.90
52016;DHT22;38032;53.326;6.472;2024-01-10T01:46:21;-2.50;99.90
52016;DHT22;38032;53.326;6.472;2024-01-10T01:48:49;-2.60;99.90
52016;DHT22;38032;53.326;6.472;2024-01-10T01:51:17;-2.50;99.90
52016;DHT22;38032;53.326;6.472;2024-01-10T01:53:46;-2.60;99.90
52016;DHT22;38032;53.326;6.472;2024-01-10T01:56:13;-2.60;99.90
52016;DHT22;38032;53.326;6.472;2024-01-10T01:58:40;-2.60;99.90
52016;DHT22;38032;53.326;6.472;2024-01-10T02:01:06;-2.60;99.90
52016;DHT22;38032;53.326;6.472;2024-01-10T02:03:32;-2.60;99.90
52016;DHT22;38032;53.326;6.472;2024-01-10T02:05:59;-2.60;99.90
52016;DHT22;38032;53.326;6.472;2024-01-10T02:08:25;-2.60;99.90
52016;DHT22;38032;53.326;6.472;2024-01-10T02:10:51;-2.60;99.90
52016;DHT22;38032;53.326;6.472;2024-01-10T02:13:17;-2.60;99.90
52016;DHT22;38032;53.326;6.472;2024-01-10T02:15:43;-2.60;99.90
52016;DHT22;38032;53.326;6.472;2024-01-10T02:18:09;-2.60;99.90
52016;DHT22;38032;53.326;6.472;2024-01-10T02:20:38;-2.60;99.90
52016;DHT22;38032;53.326;6.472;2024-01-10T02:23:04;-2.60;99.90
52016;DHT22;38032;53.326;6.472;2024-01-10T02:25:29;-2.60;99.90
52016;DHT22;38032;53.326;6.472;2024-01-10T02:27:55;-2.60;99.90
52016;DHT22;38032;53.326;6.472;2024-01-10T02:30:21;-2.70;99.90
52016;DHT22;38032;53.326;6.472;2024-01-10T02:32:47;-2.60;99.90
52016;DHT22;38032;53.326;6.472;2024-01-10T02:35:13;-2.60;99.90
52016;DHT22;38032;53.326;6.472;2024-01-10T02:37:38;-2.60;99.90
52016;DHT22;38032;53.326;6.472;2024-01-10T02:40:05;-2.60;99.90
52016;DHT22;38032;53.326;6.472;2024-01-10T02:42:32;-2.60;99.90
52016;DHT22;38032;53.326;6.472;2024-01-10T02:44:58;-2.60;99.90
52016;DHT22;38032;53.326;6.472;2024-01-10T02:47:23;-2.50;99.90
52016;DHT22;38032;53.326;6.472;2024-01-10T02:49:49;-2.50;99.90
52016;DHT22;38032;53.326;6.472;2024-01-10T02:52:15;-2.60;99.90
52016;DHT22;38032;53.326;6.472;2024-01-10T02:54:41;-2.60;99.90
52016;DHT22;38032;53.326;6.472;2024-01-10T02:57:07;-2.60;99.90
52016;DHT22;38032;53.326;6.472;2024-01-10T02:59:33;-2.60;99.90
52016;DHT22;38032;53.326;6.472;2024-01-10T03:01:58;-2.60;99.90
52016;DHT22;38032;53.326;6.472;2024-01-10T03:04:24;-2.70;99.90
52016;DHT22;38032;53.326;6.472;2024-01-10T03:06:50;-2.70;99.90
52016;DHT22;38032;53.326;6.472;2024-01-10T03:09:16;-2.70;99.90
52016;DHT22;38032;53.326;6.472;2024-01-10T03:11:42;-2.70;99.90
52016;DHT22;38032;53.326;6.472;2024-01-10T03:14:09;-2.70;99.90
52016;DHT22;38032;53.326;6.472;2024-01-10T03:16:35;-2.70;99.90
52016;DHT22;38032;53.326;6.472;2024-01-10T03:19:03;-2.70;99.90
52016;DHT22;38032;53.326;6.472;2024-01-10T03:21:29;-2.70;99.90
52016;DHT22;38032;53.326;6.472;2024-01-10T03:23:56;-2.70;99.90
52016;DHT22;38032;53.326;6.472;2024-01-10T03:26:23;-2.80;99.90
52016;DHT22;38032;53.326;6.472;2024-01-10T03:28:48;-2.90;99.90
52016;DHT22;38032;53.326;6.472;2024-01-10T03:31:15;-2.90;99.90
52016;DHT22;38032;53.326;6.472;2024-01-10T03:33:41;-2.90;99.90
52016;DHT22;38032;53.326;6.472;2024-01-10T03:36:10;-3.00;99.90
52016;DHT22;38032;53.326;6.472;2024-01-10T03:38:36;-3.00;99.90
52016;DHT22;38032;53.326;6.472;2024-01-10T03:41:02;-3.10;99.90
52016;DHT22;38032;53.326;6.472;2024-01-10T03:43:28;-3.00;99.90
52016;DHT22;38032;53.326;6.472;2024-01-10T03:45:54;-3.00;99.90
52016;DHT22;38032;53.326;6.472;2024-01-10T03:48:20;-3.00;99.90
52016;DHT22;38032;53.326;6.472;2024-01-10T03:50:46;-3.00;99.90
52016;DHT22;38032;53.326;6.472;2024-01-10T03:53:12;-3.00;99.90
52016;DHT22;38032;53.326;6.472;2024-01-10T03:55:38;-3.00;99.90
52016;DHT22;38032;53.326;6.472;2024-01-10T03:58:05;-2.90;99.90
52016;DHT22;38032;53.326;6.472;2024-01-10T04:00:31;-2.90;99.90
52016;DHT22;38032;53.326;6.472;2024-01-10T04:02:56;-2.90;99.90
52016;DHT22;38032;53.326;6.472;2024-01-10T04:05:22;-2.90;99.90
52016;DHT22;38032;53.326;6.472;2024-01-10T04:07:51;-2.90;99.90
52016;DHT22;38032;53.326;6.472;2024-01-10T04:10:18;-3.00;99.90
52016;DHT22;38032;53.326;6.472;2024-01-10T04:12:44;-3.10;99.90
52016;DHT22;38032;53.326;6.472;2024-01-10T04:15:11;-3.20;99.90
52016;DHT22;38032;53.326;6.472;2024-01-10T04:17:37;-3.30;99.90
52016;DHT22;38032;53.326;6.472;2024-01-10T04:20:04;-3.40;99.90
52016;DHT22;38032;53.326;6.472;2024-01-10T04:22:31;-3.50;99.90
52016;DHT22;38032;53.326;6.472;2024-01-10T04:24:58;-3.50;99.90
52016;DHT22;38032;53.326;6.472;2024-01-10T04:27:24;-3.40;99.90
52016;DHT22;38032;53.326;6.472;2024-01-10T04:29:50;-3.40;99.90
52016;DHT22;38032;53.326;6.472;2024-01-10T04:32:16;-3.30;99.90
52016;DHT22;38032;53.326;6.472;2024-01-10T04:34:41;-3.30;99.90
52016;DHT22;38032;53.326;6.472;2024-01-10T04:37:08;-3.30;99.90
52016;DHT22;38032;53.326;6.472;2024-01-10T04:39:35;-3.40;99.90
52016;DHT22;38032;53.326;6.472;2024-01-10T04:42:01;-3.30;99.90
52016;DHT22;38032;53.326;6.472;2024-01-10T04:44:27;-3.30;99.90
52016;DHT22;38032;53.326;6.472;2024-01-10T04:46:53;-3.20;99.90
52016;DHT22;38032;53.326;6.472;2024-01-10T04:49:19;-3.20;99.90
52016;DHT22;38032;53.326;6.472;2024-01-10T04:51:46;-3.10;99.90
52016;DHT22;38032;53.326;6.472;2024-01-10T04:54:12;-3.10;99.90
52016;DHT22;38032;53.326;6.472;2024-01-10T04:56:38;-3.00;99.90
52016;DHT22;38032;53.326;6.472;2024-01-10T04:59:05;-3.00;99.90
52016;DHT22;38032;53.326;6.472;2024-01-10T05:01:31;-3.00;99.90
52016;DHT22;38032;53.326;6.472;2024-01-10T05:03:58;-2.90;99.90
52016;DHT22;38032;53.326;6.472;2024-01-10T05:06:24;-2.90;99.90
52016;DHT22;38032;53.326;6.472;2024-01-10T05:08:50;-2.90;99.90
52016;DHT22;38032;53.326;6.472;2024-01-10T05:11:16;-2.90;99.90
52016;DHT22;38032;53.326;6.472;2024-01-10T05:13:43;-2.90;99.90
52016;DHT22;38032;53.326;6.472;2024-01-10T05:16:09;-2.90;99.90
52016;DHT22;38032;53.326;6.472;2024-01-10T05:18:35;-2.90;99.90
52016;DHT22;38032;53.326;6.472;2024-01-10T05:21:01;-2.90;99.90
52016;DHT22;38032;53.326;6.472;2024-01-10T05:23:27;-2.90;99.90
52016;DHT22;38032;53.326;6.472;2024-01-10T05:25:54;-2.90;99.90
52016;DHT22;38032;53.326;6.472;2024-01-10T05:28:19;-2.90;99.90
52016;DHT22;38032;53.326;6.472;2024-01-10T05:30:45;-2.90;99.90
52016;DHT22;38032;53.326;6.472;2024-01-10T05:33:11;-2.90;99.90
52016;DHT22;38032;53.326;6.472;2024-01-10T05:35:38;-2.90;99.90
52016;DHT22;38032;53.326;6.472;2024-01-10T05:38:04;-2.90;99.90
52016;DHT22;38032;53.326;6.472;2024-01-10T05:40:30;-2.90;99.90
52016;DHT22;38032;53.326;6.472;2024-01-10T05:42:58;-2.90;99.90
52016;DHT22;38032;53.326;6.472;2024-01-10T05:45:26;-2.80;99.90
52016;DHT22;38032;53.326;6.472;2024-01-10T05:47:52;-2.80;99.90
52016;DHT22;38032;53.326;6.472;2024-01-10T05:50:18;-2.80;99.90
52016;DHT22;38032;53.326;6.472;2024-01-10T05:52:45;-2.90;99.90
52016;DHT22;38032;53.326;6.472;2024-01-10T05:55:11;-2.90;99.90
52016;DHT22;38032;53.326;6.472;2024-01-10T05:57:37;-3.00;99.90
52016;DHT22;38032;53.326;6.472;2024-01-10T06:00:04;-3.00;99.90
52016;DHT22;38032;53.326;6.472;2024-01-10T06:02:36;-3.00;99.90
52016;DHT22;38032;53.326;6.472;2024-01-10T06:05:06;-3.00;99.90
52016;DHT22;38032;53.326;6.472;2024-01-10T06:07:33;-3.00;99.90
52016;DHT22;38032;53.326;6.472;2024-01-10T06:09:58;-2.90;99.90
52016;DHT22;38032;53.326;6.472;2024-01-10T06:12:24;-2.90;99.90
52016;DHT22;38032;53.326;6.472;2024-01-10T06:14:50;-2.80;99.90
52016;DHT22;38032;53.326;6.472;2024-01-10T06:17:16;-2.80;99.90
52016;DHT22;38032;53.326;6.472;2024-01-10T06:19:42;-2.90;99.90
52016;DHT22;38032;53.326;6.472;2024-01-10T06:22:08;-3.00;99.90
52016;DHT22;38032;53.326;6.472;2024-01-10T06:24:34;-3.10;99.90
52016;DHT22;38032;53.326;6.472;2024-01-10T06:26:59;-3.30;99.90
52016;DHT22;38032;53.326;6.472;2024-01-10T06:29:25;-3.40;99.90
52016;DHT22;38032;53.326;6.472;2024-01-10T06:31:51;-3.50;99.90
52016;DHT22;38032;53.326;6.472;2024-01-10T06:34:17;-3.60;99.90
52016;DHT22;38032;53.326;6.472;2024-01-10T06:36:43;-3.50;99.90
52016;DHT22;38032;53.326;6.472;2024-01-10T06:39:10;-3.40;99.90
52016;DHT22;38032;53.326;6.472;2024-01-10T06:41:47;-3.40;99.90
52016;DHT22;38032;53.326;6.472;2024-01-10T06:44:12;-3.30;99.90
52016;DHT22;38032;53.326;6.472;2024-01-10T06:46:38;-3.20;99.90
52016;DHT22;38032;53.326;6.472;2024-01-10T06:49:04;-3.20;99.90
52016;DHT22;38032;53.326;6.472;2024-01-10T06:51:31;-3.10;99.90
52016;DHT22;38032;53.326;6.472;2024-01-10T06:53:57;-3.10;99.90
52016;DHT22;38032;53.326;6.472;2024-01-10T06:56:31;-3.00;99.90
52016;DHT22;38032;53.326;6.472;2024-01-10T06:58:58;-2.90;99.90
52016;DHT22;38032;53.326;6.472;2024-01-10T07:01:24;-2.90;99.90
52016;DHT22;38032;53.326;6.472;2024-01-10T07:03:51;-2.90;99.90
52016;DHT22;38032;53.326;6.472;2024-01-10T07:06:17;-2.90;99.90
52016;DHT22;38032;53.326;6.472;2024-01-10T07:08:44;-2.90;99.90
52016;DHT22;38032;53.326;6.472;2024-01-10T07:11:11;-2.90;99.90
52016;DHT22;38032;53.326;6.472;2024-01-10T07:13:37;-3.00;99.90
52016;DHT22;38032;53.326;6.472;2024-01-10T07:16:03;-3.00;99.90
52016;DHT22;38032;53.326;6.472;2024-01-10T07:18:29;-3.10;99.90
52016;DHT22;38032;53.326;6.472;2024-01-10T07:20:56;-3.10;99.90
52016;DHT22;38032;53.326;6.472;2024-01-10T07:23:21;-3.00;99.90
52016;DHT22;38032;53.326;6.472;2024-01-10T07:25:49;-3.00;99.90
52016;DHT22;38032;53.326;6.472;2024-01-10T07:28:16;-3.00;99.90
52016;DHT22;38032;53.326;6.472;2024-01-10T07:30:41;-3.00;99.90
52016;DHT22;38032;53.326;6.472;2024-01-10T07:33:07;-3.00;99.90
52016;DHT22;38032;53.326;6.472;2024-01-10T07:35:33;-3.00;99.90
52016;DHT22;38032;53.326;6.472;2024-01-10T07:37:59;-3.00;99.90
52016;DHT22;38032;53.326;6.472;2024-01-10T07:40:25;-2.90;99.90
52016;DHT22;38032;53.326;6.472;2024-01-10T07:42:51;-2.90;99.90
52016;DHT22;38032;53.326;6.472;2024-01-10T07:45:17;-2.90;99.90
52016;DHT22;38032;53.326;6.472;2024-01-10T07:47:43;-2.80;99.90
52016;DHT22;38032;53.326;6.472;2024-01-10T07:50:10;-2.80;99.90
52016;DHT22;38032;53.326;6.472;2024-01-10T07:52:36;-2.70;99.90
52016;DHT22;38032;53.326;6.472;2024-01-10T07:55:03;-2.70;99.90
52016;DHT22;38032;53.326;6.472;2024-01-10T07:57:35;-2.80;99.90
52016;DHT22;38032;53.326;6.472;2024-01-10T08:00:03;-2.90;99.90
52016;DHT22;38032;53.326;6.472;2024-01-10T08:02:29;-2.80;99.90
52016;DHT22;38032;53.326;6.472;2024-01-10T08:05:00;-2.80;99.90
52016;DHT22;38032;53.326;6.472;2024-01-10T08:07:26;-2.80;99.90
52016;DHT22;38032;53.326;6.472;2024-01-10T08:09:52;-2.70;99.90
52016;DHT22;38032;53.326;6.472;2024-01-10T08:12:18;-2.70;99.90
52016;DHT22;38032;53.326;6.472;2024-01-10T08:14:44;-2.70;99.90
52016;DHT22;38032;53.326;6.472;2024-01-10T08:17:11;-2.60;99.90
52016;DHT22;38032;53.326;6.472;2024-01-10T08:19:37;-2.60;99.90
52016;DHT22;38032;53.326;6.472;2024-01-10T08:22:04;-2.50;99.90
52016;DHT22;38032;53.326;6.472;2024-01-10T08:24:30;-2.50;99.90
52016;DHT22;38032;53.326;6.472;2024-01-10T08:26:56;-2.40;99.90
52016;DHT22;38032;53.326;6.472;2024-01-10T08:29:21;-2.40;99.90
52016;DHT22;38032;53.326;6.472;2024-01-10T08:31:48;-2.40;99.90
52016;DHT22;38032;53.326;6.472;2024-01-10T08:34:14;-2.20;99.90
52016;DHT22;38032;53.326;6.472;2024-01-10T08:36:40;-2.10;99.90
52016;DHT22;38032;53.326;6.472;2024-01-10T08:39:05;-1.90;99.90
52016;DHT22;38032;53.326;6.472;2024-01-10T08:41:32;-1.90;99.90
52016;DHT22;38032;53.326;6.472;2024-01-10T08:43:59;-1.80;99.90
52016;DHT22;38032;53.326;6.472;2024-01-10T08:46:25;-1.60;99.90
52016;DHT22;38032;53.326;6.472;2024-01-10T08:48:51;-1.40;99.90
52016;DHT22;38032;53.326;6.472;2024-01-10T08:51:17;-1.20;99.90
52016;DHT22;38032;53.326;6.472;2024-01-10T08:53:44;-1.00;99.90
52016;DHT22;38032;53.326;6.472;2024-01-10T08:56:10;-0.90;99.90
52016;DHT22;38032;53.326;6.472;2024-01-10T08:58:37;-0.90;99.90
52016;DHT22;38032;53.326;6.472;2024-01-10T09:01:03;-0.90;99.90
52016;DHT22;38032;53.326;6.472;2024-01-10T09:03:30;-0.90;99.90
52016;DHT22;38032;53.326;6.472;2024-01-10T09:05:56;-0.80;99.90
52016;DHT22;38032;53.326;6.472;2024-01-10T09:08:22;-0.50;99.90
52016;DHT22;38032;53.326;6.472;2024-01-10T09:10:49;-0.20;99.90
52016;DHT22;38032;53.326;6.472;2024-01-10T09:13:15;0.00;99.90
52016;DHT22;38032;53.326;6.472;2024-01-10T09:15:41;0.10;99.90
52016;DHT22;38032;53.326;6.472;2024-01-10T09:18:07;0.40;99.90
52016;DHT22;38032;53.326;6.472;2024-01-10T09:20:33;0.80;99.90
52016;DHT22;38032;53.326;6.472;2024-01-10T09:22:59;1.20;99.90
52016;DHT22;38032;53.326;6.472;2024-01-10T09:25:26;1.30;99.90
52016;DHT22;38032;53.326;6.472;2024-01-10T09:27:52;1.40;99.90
52016;DHT22;38032;53.326;6.472;2024-01-10T09:30:18;1.50;99.90
52016;DHT22;38032;53.326;6.472;2024-01-10T09:32:45;1.60;99.90
52016;DHT22;38032;53.326;6.472;2024-01-10T09:35:11;1.50;99.90
52016;DHT22;38032;53.326;6.472;2024-01-10T09:37:38;1.30;99.90
52016;DHT22;38032;53.326;6.472;2024-01-10T09:40:04;1.30;99.90
52016;DHT22;38032;53.326;6.472;2024-01-10T09:42:31;1.40;99.90
52016;DHT22;38032;53.326;6.472;2024-01-10T09:44:59;1.40;99.90
52016;DHT22;38032;53.326;6.472;2024-01-10T09:47:25;1.40;99.90
52016;DHT22;38032;53.326;6.472;2024-01-10T09:49:51;1.40;99.90
52016;DHT22;38032;53.326;6.472;2024-01-10T09:52:36;1.30;99.90
52016;DHT22;38032;53.326;6.472;2024-01-10T09:55:04;1.30;99.90
52016;DHT22;38032;53.326;6.472;2024-01-10T09:57:30;1.30;99.90
52016;DHT22;38032;53.326;6.472;2024-01-10T09:59:56;1.30;99.90
52016;DHT22;38032;53.326;6.472;2024-01-10T10:02:23;1.30;99.90
52016;DHT22;38032;53.326;6.472;2024-01-10T10:05:02;1.40;99.90
52016;DHT22;38032;53.326;6.472;2024-01-10T10:07:29;1.50;99.90
52016;DHT22;38032;53.326;6.472;2024-01-10T10:09:55;1.60;99.90
52016;DHT22;38032;53.326;6.472;2024-01-10T10:12:42;1.50;99.90
52016;DHT22;38032;53.326;6.472;2024-01-10T10:15:11;1.40;99.90
52016;DHT22;38032;53.326;6.472;2024-01-10T10:17:37;1.20;99.90
52016;DHT22;38032;53.326;6.472;2024-01-10T10:20:11;1.00;99.90
52016;DHT22;38032;53.326;6.472;2024-01-10T10:22:36;0.90;99.90
52016;DHT22;38032;53.326;6.472;2024-01-10T10:25:03;0.80;99.90
52016;DHT22;38032;53.326;6.472;2024-01-10T10:27:30;0.70;99.90
52016;DHT22;38032;53.326;6.472;2024-01-10T10:29:55;0.90;99.90
52016;DHT22;38032;53.326;6.472;2024-01-10T10:32:21;1.10;99.90
52016;DHT22;38032;53.326;6.472;2024-01-10T10:34:47;1.30;99.90
52016;DHT22;38032;53.326;6.472;2024-01-10T10:37:13;1.30;99.90
52016;DHT22;38032;53.326;6.472;2024-01-10T10:39:39;1.30;99.90
52016;DHT22;38032;53.326;6.472;2024-01-10T10:42:06;1.20;99.90
52016;DHT22;38032;53.326;6.472;2024-01-10T10:44:35;1.00;99.90
52016;DHT22;38032;53.326;6.472;2024-01-10T10:47:04;1.00;99.90
52016;DHT22;38032;53.326;6.472;2024-01-10T10:49:34;1.10;99.90
52016;DHT22;38032;53.326;6.472;2024-01-10T10:52:00;1.10;99.90
52016;DHT22;38032;53.326;6.472;2024-01-10T10:54:29;1.20;99.90
52016;DHT22;38032;53.326;6.472;2024-01-10T10:56:57;1.30;99.90
52016;DHT22;38032;53.326;6.472;2024-01-10T10:59:26;1.40;99.90
52016;DHT22;38032;53.326;6.472;2024-01-10T11:01:54;1.50;99.90
52016;DHT22;38032;53.326;6.472;2024-01-10T11:04:21;1.60;99.90
52016;DHT22;38032;53.326;6.472;2024-01-10T11:06:47;1.60;99.90
52016;DHT22;38032;53.326;6.472;2024-01-10T11:09:15;1.60;99.90
52016;DHT22;38032;53.326;6.472;2024-01-10T11:12:02;1.60;99.90
52016;DHT22;38032;53.326;6.472;2024-01-10T11:14:41;1.70;99.90
52016;DHT22;38032;53.326;6.472;2024-01-10T11:25:27;2.00;99.90
52016;DHT22;38032;53.326;6.472;2024-01-10T11:27:55;2.00;99.90
52016;DHT22;38032;53.326;6.472;2024-01-10T11:30:33;2.00;99.90
52016;DHT22;38032;53.326;6.472;2024-01-10T11:33:17;1.90;99.90
52016;DHT22;38032;53.326;6.472;2024-01-10T11:36:14;1.90;99.90
52016;DHT22;38032;53.326;6.472;2024-01-10T11:41:23;1.70;99.90
52016;DHT22;38032;53.326;6.472;2024-01-10T11:46:38;1.50;99.90
52016;DHT22;38032;53.326;6.472;2024-01-10T11:49:08;1.50;99.90
52016;DHT22;38032;53.326;6.472;2024-01-10T11:51:38;1.50;99.90
52016;DHT22;38032;53.326;6.472;2024-01-10T11:54:04;1.40;99.90
52016;DHT22;38032;53.326;6.472;2024-01-10T11:56:39;1.40;99.90
52016;DHT22;38032;53.326;6.472;2024-01-10T11:59:07;1.40;99.90
52016;DHT22;38032;53.326;6.472;2024-01-10T12:01:35;1.40;99.90
52016;DHT22;38032;53.326;6.472;2024-01-10T12:04:02;1.50;99.90
52016;DHT22;38032;53.326;6.472;2024-01-10T12:06:31;1.50;99.90
52016;DHT22;38032;53.326;6.472;2024-01-10T12:08:57;1.60;99.90
52016;DHT22;38032;53.326;6.472;2024-01-10T12:11:23;1.60;99.90
52016;DHT22;38032;53.326;6.472;2024-01-10T12:13:49;1.50;99.90
52016;DHT22;38032;53.326;6.472;2024-01-10T12:16:15;1.50;99.90
52016;DHT22;38032;53.326;6.472;2024-01-10T12:18:43;1.40;99.90
52016;DHT22;38032;53.326;6.472;2024-01-10T12:21:09;1.40;99.90
52016;DHT22;38032;53.326;6.472;2024-01-10T12:23:36;1.40;99.90
52016;DHT22;38032;53.326;6.472;2024-01-10T12:26:16;1.40;99.90
52016;DHT22;38032;53.326;6.472;2024-01-10T12:28:54;1.40;99.90
52016;DHT22;38032;53.326;6.472;2024-01-10T12:31:21;1.40;99.90
52016;DHT22;38032;53.326;6.472;2024-01-10T12:33:49;1.30;99.90
52016;DHT22;38032;53.326;6.472;2024-01-10T12:36:17;1.20;99.90
52016;DHT22;38032;53.326;6.472;2024-01-10T12:38:43;1.20;99.90
52016;DHT22;38032;53.326;6.472;2024-01-10T12:41:11;1.20;99.90
52016;DHT22;38032;53.326;6.472;2024-01-10T12:43:39;1.10;99.90
52016;DHT22;38032;53.326;6.472;2024-01-10T12:46:08;1.10;99.90
52016;DHT22;38032;53.326;6.472;2024-01-10T12:48:41;1.10;99.90
52016;DHT22;38032;53.326;6.472;2024-01-10T12:51:08;1.10;99.90
52016;DHT22;38032;53.326;6.472;2024-01-10T12:53:36;1.00;99.90
52016;DHT22;38032;53.326;6.472;2024-01-10T12:56:03;1.00;99.90
52016;DHT22;38032;53.326;6.472;2024-01-10T12:58:29;1.00;99.90
52016;DHT22;38032;53.326;6.472;2024-01-10T13:00:55;0.90;99.90
52016;DHT22;38032;53.326;6.472;2024-01-10T13:03:22;0.90;99.90
52016;DHT22;38032;53.326;6.472;2024-01-10T13:05:49;0.90;99.90
52016;DHT22;38032;53.326;6.472;2024-01-10T13:08:15;0.80;99.90
52016;DHT22;38032;53.326;6.472;2024-01-10T13:10:41;0.80;99.90
52016;DHT22;38032;53.326;6.472;2024-01-10T13:13:07;0.90;99.90
52016;DHT22;38032;53.326;6.472;2024-01-10T13:15:34;0.80;99.90
52016;DHT22;38032;53.326;6.472;2024-01-10T13:18:00;0.80;99.90
52016;DHT22;38032;53.326;6.472;2024-01-10T13:20:26;0.80;99.90
52016;DHT22;38032;53.326;6.472;2024-01-10T13:22:53;0.70;99.90
52016;DHT22;38032;53.326;6.472;2024-01-10T13:25:19;0.70;99.90
52016;DHT22;38032;53.326;6.472;2024-01-10T13:27:50;0.70;99.90
52016;DHT22;38032;53.326;6.472;2024-01-10T13:30:17;0.70;99.90
52016;DHT22;38032;53.326;6.472;2024-01-10T13:32:44;0.70;99.90
52016;DHT22;38032;53.326;6.472;2024-01-10T13:35:10;0.60;99.90
52016;DHT22;38032;53.326;6.472;2024-01-10T13:37:35;0.60;99.90
52016;DHT22;38032;53.326;6.472;2024-01-10T13:40:02;0.60;99.90
52016;DHT22;38032;53.326;6.472;2024-01-10T13:42:31;0.60;99.90
52016;DHT22;38032;53.326;6.472;2024-01-10T13:44:58;0.50;99.90
52016;DHT22;38032;53.326;6.472;2024-01-10T13:47:24;0.50;99.90
52016;DHT22;38032;53.326;6.472;2024-01-10T13:49:50;0.50;99.90
52016;DHT22;38032;53.326;6.472;2024-01-10T13:52:16;0.50;99.90
52016;DHT22;38032;53.326;6.472;2024-01-10T13:54:43;0.50;99.90
52016;DHT22;38032;53.326;6.472;2024-01-10T13:57:08;0.50;99.90
52016;DHT22;38032;53.326;6.472;2024-01-10T13:59:34;0.50;99.90
52016;DHT22;38032;53.326;6.472;2024-01-10T14:02:00;0.50;99.90
52016;DHT22;38032;53.326;6.472;2024-01-10T14:04:26;0.50;99.90
52016;DHT22;38032;53.326;6.472;2024-01-10T14:06:52;0.50;99.90
52016;DHT22;38032;53.326;6.472;2024-01-10T14:09:17;0.50;99.90
52016;DHT22;38032;53.326;6.472;2024-01-10T14:11:44;0.50;99.90
52016;DHT22;38032;53.326;6.472;2024-01-10T14:14:10;0.50;99.90
52016;DHT22;38032;53.326;6.472;2024-01-10T14:16:36;0.50;99.90
52016;DHT22;38032;53.326;6.472;2024-01-10T14:19:02;0.60;99.90
52016;DHT22;38032;53.326;6.472;2024-01-10T14:21:29;0.50;99.90
52016;DHT22;38032;53.326;6.472;2024-01-10T14:23:56;0.50;99.90
52016;DHT22;38032;53.326;6.472;2024-01-10T14:26:22;0.50;99.90
52016;DHT22;38032;53.326;6.472;2024-01-10T14:28:48;0.50;99.90
52016;DHT22;38032;53.326;6.472;2024-01-10T14:31:14;0.40;99.90
52016;DHT22;38032;53.326;6.472;2024-01-10T14:33:40;0.40;99.90
52016;DHT22;38032;53.326;6.472;2024-01-10T14:36:06;0.30;99.90
52016;DHT22;38032;53.326;6.472;2024-01-10T14:38:32;0.30;99.90
52016;DHT22;38032;53.326;6.472;2024-01-10T14:40:58;0.20;99.90
52016;DHT22;38032;53.326;6.472;2024-01-10T14:43:24;0.10;99.90
52016;DHT22;38032;53.326;6.472;2024-01-10T14:45:50;0.10;99.90
52016;DHT22;38032;53.326;6.472;2024-01-10T14:48:17;0.00;99.90
52016;DHT22;38032;53.326;6.472;2024-01-10T14:50:43;-0.10;99.90
52016;DHT22;38032;53.326;6.472;2024-01-10T14:53:09;-0.10;99.90
52016;DHT22;38032;53.326;6.472;2024-01-10T14:55:35;-0.10;99.90
52016;DHT22;38032;53.326;6.472;2024-01-10T14:58:01;-0.10;99.90
52016;DHT22;38032;53.326;6.472;2024-01-10T15:00:26;-0.10;99.90
52016;DHT22;38032;53.326;6.472;2024-01-10T15:02:52;-0.10;99.90
52016;DHT22;38032;53.326;6.472;2024-01-10T15:05:18;-0.10;99.90
52016;DHT22;38032;53.326;6.472;2024-01-10T15:07:44;-0.10;99.90
52016;DHT22;38032;53.326;6.472;2024-01-10T15:10:10;-0.10;99.90
52016;DHT22;38032;53.326;6.472;2024-01-10T15:12:36;-0.20;99.90
52016;DHT22;38032;53.326;6.472;2024-01-10T15:15:02;-0.10;99.90
52016;DHT22;38032;53.326;6.472;2024-01-10T15:17:27;-0.20;99.90
52016;DHT22;38032;53.326;6.472;2024-01-10T15:19:53;-0.20;99.90
52016;DHT22;38032;53.326;6.472;2024-01-10T15:22:19;-0.20;99.90
52016;DHT22;38032;53.326;6.472;2024-01-10T15:24:45;-0.30;99.90
52016;DHT22;38032;53.326;6.472;2024-01-10T15:27:11;-0.30;99.90
52016;DHT22;38032;53.326;6.472;2024-01-10T15:29:37;-0.40;99.90
52016;DHT22;38032;53.326;6.472;2024-01-10T15:32:04;-0.50;99.90
52016;DHT22;38032;53.326;6.472;2024-01-10T15:34:30;-0.70;99.90
52016;DHT22;38032;53.326;6.472;2024-01-10T15:36:55;-0.80;99.90
52016;DHT22;38032;53.326;6.472;2024-01-10T15:39:21;-0.90;99.90
52016;DHT22;38032;53.326;6.472;2024-01-10T15:41:48;-1.00;99.90
52016;DHT22;38032;53.326;6.472;2024-01-10T15:44:15;-1.10;99.90
52016;DHT22;38032;53.326;6.472;2024-01-10T15:46:41;-1.30;99.90